地図

経路データ

SID SEASON NUMBER BASIN SUBBASIN NAME ISO_TIME NATURE LAT LON WMO_WIND WMO_PRES WMO_AGENCY TRACK_TYPE DIST2LAND LANDFALL IFLAG USA_AGENCY USA_ATCF_ID USA_LAT USA_LON USA_RECORD USA_STATUS USA_WIND USA_PRES USA_SSHS USA_R34_NE USA_R34_SE USA_R34_SW USA_R34_NW USA_R50_NE USA_R50_SE USA_R50_SW USA_R50_NW USA_R64_NE USA_R64_SE USA_R64_SW USA_R64_NW USA_POCI USA_ROCI USA_RMW USA_EYE TOKYO_LAT TOKYO_LON TOKYO_GRADE TOKYO_WIND TOKYO_PRES TOKYO_R50_DIR TOKYO_R50_LONG TOKYO_R50_SHORT TOKYO_R30_DIR TOKYO_R30_LONG TOKYO_R30_SHORT TOKYO_LAND CMA_LAT CMA_LON CMA_CAT CMA_WIND CMA_PRES HKO_LAT HKO_LON HKO_CAT HKO_WIND HKO_PRES NEWDELHI_LAT NEWDELHI_LON NEWDELHI_GRADE NEWDELHI_WIND NEWDELHI_PRES NEWDELHI_CI NEWDELHI_DP NEWDELHI_POCI REUNION_LAT REUNION_LON REUNION_TYPE REUNION_WIND REUNION_PRES REUNION_TNUM REUNION_CI REUNION_RMW REUNION_R34_NE REUNION_R34_SE REUNION_R34_SW REUNION_R34_NW REUNION_R50_NE REUNION_R50_SE REUNION_R50_SW REUNION_R50_NW REUNION_R64_NE REUNION_R64_SE REUNION_R64_SW REUNION_R64_NW BOM_LAT BOM_LON BOM_TYPE BOM_WIND BOM_PRES BOM_TNUM BOM_CI BOM_RMW BOM_R34_NE BOM_R34_SE BOM_R34_SW BOM_R34_NW BOM_R50_NE BOM_R50_SE BOM_R50_SW BOM_R50_NW BOM_R64_NE BOM_R64_SE BOM_R64_SW BOM_R64_NW BOM_ROCI BOM_POCI BOM_EYE BOM_POS_METHOD BOM_PRES_METHOD NADI_LAT NADI_LON NADI_CAT NADI_WIND NADI_PRES WELLINGTON_LAT WELLINGTON_LON WELLINGTON_WIND WELLINGTON_PRES DS824_LAT DS824_LON DS824_STAGE DS824_WIND DS824_PRES TD9636_LAT TD9636_LON TD9636_STAGE TD9636_WIND TD9636_PRES TD9635_LAT TD9635_LON TD9635_WIND TD9635_PRES TD9635_ROCI NEUMANN_LAT NEUMANN_LON NEUMANN_CLASS NEUMANN_WIND NEUMANN_PRES MLC_LAT MLC_LON MLC_CLASS MLC_WIND MLC_PRES USA_GUST BOM_GUST BOM_GUST_PER REUNION_GUST REUNION_GUST_PER USA_SEAHGT USA_SEARAD_NE USA_SEARAD_SE USA_SEARAD_SW USA_SEARAD_NW STORM_SPEED STORM_DIR
2022288N19128 2022 73 WP MM NESAT 2022-10-14 18:00:00 NR 18.8000 127.600 PROVISIONAL 560 529 O_____________ tcvitals WP232022 18.8000 127.600 25 999 -1 1001 160 55 6 292
2022288N19128 2022 73 WP MM NESAT 2022-10-14 21:00:00 NR 18.9154 127.301 PROVISIONAL 529 466 P_____________ WP232022 18.9154 127.301 25 998 -1 1003 230 55 10 276
2022288N19128 2022 73 WP MM NESAT 2022-10-15 00:00:00 NR 18.9000 126.600 PROVISIONAL 456 328 O_____________ tcvitals WP232022 18.9000 126.600 25 997 -1 1006 300 55 19 263
2022288N19128 2022 73 WP MM NESAT 2022-10-15 03:00:00 NR 18.6880 125.298 PROVISIONAL 318 190 P_____________ WP232022 18.6880 125.298 27 998 -1 1004 280 55 25 261
2022288N19128 2022 73 WP MM NESAT 2022-10-15 06:00:00 NR 18.5000 124.000 PROVISIONAL 179 118 O_____________ tcvitals WP232022 18.5000 124.000 29 1000 -1 110 80 85 1003 260 55 18 267
2022288N19128 2022 73 WP MM NESAT 2022-10-15 09:00:00 NR 18.5885 123.358 PROVISIONAL 118 86 P_____________ WP232022 18.5885 123.358 34 999 0 105 80 72 1004 267 47 10 288
2022288N19128 2022 73 WP MM NESAT 2022-10-15 12:00:00 NR 18.8000 123.000 PROVISIONAL 86 76 O_____________ tcvitals WP232022 18.8000 123.000 39 999 0 100 80 45 60 1005 275 40 8 303
2022288N19128 2022 73 WP MM NESAT 2022-10-15 15:00:00 NR 19.0146 122.657 PROVISIONAL 79 74 P_____________ WP232022 19.0146 122.657 42 997 0 100 80 52 102 1005 275 40 8 301
2022288N19128 2022 73 WP MM NESAT 2022-10-15 18:00:00 NR 19.2000 122.300 PROVISIONAL 89 89 O_____________ tcvitals WP232022 19.2000 122.300 45 995 0 100 80 60 145 1005 275 40 9 287
2022288N19128 2022 73 WP MM NESAT 2022-10-15 21:00:00 NR 19.2649 121.795 PROVISIONAL 98 84 P_____________ WP232022 19.2649 121.795 48 994 0 100 80 60 145 1006 287 40 10 276
2022288N19128 2022 73 WP MM NESAT 2022-10-16 00:00:00 NR 19.3000 121.200 PROVISIONAL 84 78 O_____________ tcvitals WP232022 19.3000 121.200 51 994 0 100 80 60 145 1007 300 40 12 276
2022288N19128 2022 73 WP MM NESAT 2022-10-16 03:00:00 NR 19.3851 120.542 PROVISIONAL 94 94 P_____________ WP232022 19.3851 120.542 60 987 0 95 77 65 137 1005 282 28 12 279
2022288N19128 2022 73 WP MM NESAT 2022-10-16 06:00:00 NR 19.5000 119.900 PROVISIONAL 138 138 O_____________ tcvitals WP232022 19.5000 119.900 70 980 1 90 75 70 130 1004 265 17 11 285
2022288N19128 2022 73 WP MM NESAT 2022-10-16 09:00:00 NR 19.6720 119.393 PROVISIONAL 191 191 P_____________ WP232022 19.6720 119.393 72 979 1 92 80 72 132 1005 265 21 10 288
2022288N19128 2022 73 WP MM NESAT 2022-10-16 12:00:00 NR 19.8000 118.900 PROVISIONAL 237 237 O_____________ tcvitals WP232022 19.8000 118.900 74 978 1 95 85 75 135 1006 265 25 10 275
2022288N19128 2022 73 WP MM NESAT 2022-10-16 15:00:00 NR 19.7651 118.292 PROVISIONAL 287 287 P_____________ WP232022 19.7651 118.292 74 978 1 95 85 75 135 1006 265 25 11 265
2022288N19128 2022 73 WP MM NESAT 2022-10-16 18:00:00 NR 19.7000 117.700 PROVISIONAL 337 337 O_____________ tcvitals WP232022 19.7000 117.700 74 978 1 95 85 75 135 1006 265 25 10 271
2022288N19128 2022 73 WP MM NESAT 2022-10-16 21:00:00 NR 19.7874 117.190 PROVISIONAL 354 340 P_____________ WP232022 19.7874 117.190 77 975 1 95 85 75 135 1005 217 25 9 277
2022288N19128 2022 73 WP MM NESAT 2022-10-17 00:00:00 NR 19.8000 116.800 PROVISIONAL 340 337 O_____________ tcvitals WP232022 19.8000 116.800 80 973 1 95 85 75 135 1005 170 25 6 244
2022288N19128 2022 73 WP MM NESAT 2022-10-17 03:00:00 NR 19.5221 116.607 PROVISIONAL 367 367 P_____________ WP232022 19.5221 116.607 84 968 2 95 82 85 140 1004 200 19 7 212
2022288N19128 2022 73 WP MM NESAT 2022-10-17 06:00:00 NR 19.2000 116.400 PROVISIONAL 396 394 O_____________ tcvitals WP232022 19.2000 116.400 89 964 2 95 80 95 145 1004 230 14 8 235
2022288N19128 2022 73 WP MM NESAT 2022-10-17 09:00:00 NR 19.0778 115.930 PROVISIONAL 394 386 P_____________ WP232022 19.0778 115.930 89 964 2 122 90 107 147 1004 230 9 10 258
2022288N19128 2022 73 WP MM NESAT 2022-10-17 12:00:00 NR 19.0000 115.400 PROVISIONAL 386 380 O_____________ tcvitals WP232022 19.0000 115.400 89 964 2 150 100 120 150 1004 230 5 9 257
2022288N19128 2022 73 WP MM NESAT 2022-10-17 15:00:00 NR 18.8723 114.993 PROVISIONAL 387 385 P_____________ WP232022 18.8723 114.993 89 964 2 145 102 115 150 1004 235 5 8 248
2022288N19128 2022 73 WP MM NESAT 2022-10-17 18:00:00 NR 18.7000 114.600 PROVISIONAL 391 358 O_____________ tcvitals WP232022 18.7000 114.600 89 964 2 140 105 110 150 1004 240 5 9 242
2022288N19128 2022 73 WP MM NESAT 2022-10-17 21:00:00 NR 18.4351 114.135 PROVISIONAL 352 324 P_____________ WP232022 18.4351 114.135 84 968 2 260 87 105 182 1004 235 5 10 240
2022288N19128 2022 73 WP MM NESAT 2022-10-18 00:00:00 NR 18.2000 113.700 PROVISIONAL 324 297 O_____________ tcvitals WP232022 18.2000 113.700 80 972 1 380 70 100 215 1004 230 5 8 249
2022288N19128 2022 73 WP MM NESAT 2022-10-18 03:00:00 NR 18.1574 113.363 PROVISIONAL 297 277 P_____________ WP232022 18.1574 113.363 80 972 1 380 70 90 175 1005 230 7 6 260
2022288N19128 2022 73 WP MM NESAT 2022-10-18 06:00:00 NR 18.1000 113.100 PROVISIONAL 277 272 O_____________ tcvitals WP232022 18.1000 113.100 80 972 1 380 70 80 135 1006 230 10 5 231
2022288N19128 2022 73 WP MM NESAT 2022-10-18 09:00:00 NR 17.8148 112.915 PROVISIONAL 276 272 P_____________ WP232022 17.8148 112.915 75 975 1 317 67 92 147 1006 230 10 7 212
2022288N19128 2022 73 WP MM NESAT 2022-10-18 12:00:00 NR 17.5000 112.700 PROVISIONAL 274 254 O_____________ tcvitals WP232022 17.5000 112.700 70 979 1 255 65 105 160 1006 230 10 7 228
2022288N19128 2022 73 WP MM NESAT 2022-10-18 15:00:00 NR 17.3200 112.345 PROVISIONAL 253 230 P_____________ WP232022 17.3200 112.345 67 981 1 252 65 95 167 1006 235 20 8 249
2022288N19128 2022 73 WP MM NESAT 2022-10-18 18:00:00 NR 17.2000 111.900 PROVISIONAL 230 207 O_____________ tcvitals WP232022 17.2000 111.900 64 983 1 250 65 85 175 1006 240 30 9 255
2022288N19128 2022 73 WP MM NESAT 2022-10-18 21:00:00 NR 17.0776 111.392 PROVISIONAL 207 183 P_____________ WP232022 17.0776 111.392 59 985 0 217 57 75 140 1007 185 40 10 258
2022288N19128 2022 73 WP MM NESAT 2022-10-19 00:00:00 NR 17.0000 110.900 PROVISIONAL 183 164 O_____________ tcvitals WP232022 17.0000 110.900 54 988 0 185 50 65 105 1008 130 50 8 263
2022288N19128 2022 73 WP MM NESAT 2022-10-19 03:00:00 NR 16.9698 110.535 PROVISIONAL 158 144 P_____________ WP232022 16.9698 110.535 52 992 0 117 47 55 80 1008 130 37 7 270
2022288N19128 2022 73 WP MM NESAT 2022-10-19 06:00:00 NR 17.0000 110.200 PROVISIONAL 144 123 O_____________ tcvitals WP232022 17.0000 110.200 51 997 0 50 45 45 55 1008 130 25 7 279
2022288N19128 2022 73 WP MM NESAT 2022-10-19 09:00:00 NR 17.0849 109.815 PROVISIONAL 123 111 P_____________ WP232022 17.0849 109.815 45 999 0 50 45 45 52 1008 130 25 8 285
2022288N19128 2022 73 WP MM NESAT 2022-10-19 12:00:00 NR 17.2000 109.400 PROVISIONAL 112 105 O_____________ tcvitals WP232022 17.2000 109.400 39 1002 0 50 45 45 50 1008 130 25 9 284
2022288N19128 2022 73 WP MM NESAT 2022-10-19 15:00:00 NR 17.3002 108.913 PROVISIONAL 119 116 P_____________ WP232022 17.3002 108.913 39 1002 0 50 37 60 1008 130 25 9 283
2022288N19128 2022 73 WP MM NESAT 2022-10-19 18:00:00 NR 17.4000 108.500 PROVISIONAL 123 116 O_____________ tcvitals WP232022 17.4000 108.500 39 1002 0 50 30 70 1008 130 25 6 289
2022288N19128 2022 73 WP MM NESAT 2022-10-19 21:00:00 NR 17.5073 108.282 PROVISIONAL 119 113 P_____________ WP232022 17.5073 108.282 37 1005 0 50 30 70 1010 110 25 4 305
2022288N19128 2022 73 WP MM NESAT 2022-10-20 00:00:00 NR 17.6000 108.200 PROVISIONAL 113 103 O_____________ tcvitals WP232022 17.6000 108.200 35 1008 0 50 30 70 1012 90 25 2 335
2022288N19128 2022 73 WP MM NESAT 2022-10-20 03:00:00 NR 17.6800 108.200 PROVISIONAL 103 103 P_____________ WP232022 17.6800 108.200 30 1008 -1 1012 92 25 1 0
2022288N19128 2022 73 WP MM NESAT 2022-10-20 06:00:00 NR 17.7000 108.200 PROVISIONAL 103 103 O_____________ tcvitals WP232022 17.7000 108.200 25 1009 -1 1012 95 25 1 244
2022288N19128 2022 73 WP MM NESAT 2022-10-20 09:00:00 NR 17.6276 108.087 PROVISIONAL 119 96 P_____________ WP232022 17.6276 108.087 25 1008 -1 1012 85 25 3 235
2022288N19128 2022 73 WP MM NESAT 2022-10-20 12:00:00 NR 17.5000 107.900 PROVISIONAL 96 O_____________ tcvitals WP232022 17.5000 107.900 25 1008 -1 1012 75 25 4 234

デジタル台風データ・検索

IBTrACS Databaseについて

本データベースは、米国NOAAが公開する1842年以降の世界の熱帯低気圧のベストトラックデータアーカイブInternational Best Track Archive for Climate Stewardship (IBTrACS)を、ウェブで閲覧しやすい形式に変換したものです。

最終更新日:2022-11-16